createdAt,value
2018-06-29T00:01:10.684Z,97905.02
2018-06-29T00:03:39.908Z,97906.39
2018-06-29T00:06:09.972Z,97914.99
2018-06-29T00:08:39.203Z,97916.06
2018-06-29T00:11:08.631Z,97911.73
2018-06-29T00:13:37.885Z,97909.86
2018-06-29T00:16:07.118Z,97920.06
2018-06-29T00:18:36.396Z,97922.48
2018-06-29T00:21:05.627Z,97918.48
2018-06-29T00:23:34.854Z,97916.88
2018-06-29T00:26:04.072Z,97921.14
2018-06-29T00:28:33.294Z,97917.97
2018-06-29T00:31:02.618Z,97922.54
2018-06-29T00:33:31.842Z,97915.37
2018-06-29T00:36:01.003Z,97919.10
2018-06-29T00:38:30.234Z,97916.12
2018-06-29T00:40:59.419Z,97921.28
2018-06-29T00:43:28.695Z,97922.62
2018-06-29T00:45:57.905Z,97916.47
2018-06-29T00:48:26.853Z,97917.00
2018-06-29T00:50:56.102Z,97925.86
2018-06-29T00:53:25.110Z,97922.94
2018-06-29T00:55:54.318Z,97925.89
2018-06-29T00:58:23.576Z,97926.70
2018-06-29T01:00:52.985Z,97920.20
2018-06-29T01:03:22.835Z,97926.36
2018-06-29T01:05:52.167Z,97926.09
2018-06-29T01:08:21.475Z,97928.21
2018-06-29T01:10:50.987Z,97931.42
2018-06-29T01:13:20.275Z,97922.59
2018-06-29T01:15:49.677Z,97923.13
2018-06-29T01:18:18.958Z,97922.84
2018-06-29T01:20:48.315Z,97925.52
2018-06-29T01:23:17.629Z,97926.33
2018-06-29T01:25:47.084Z,97927.88
2018-06-29T01:28:16.358Z,97928.16
2018-06-29T01:30:46.513Z,97931.14
2018-06-29T01:33:15.806Z,97926.52
2018-06-29T01:35:45.072Z,97923.73
2018-06-29T01:38:14.320Z,97921.38
2018-06-29T01:40:43.614Z,97925.68
2018-06-29T01:43:12.923Z,97912.03
2018-06-29T01:45:42.293Z,97910.91
2018-06-29T01:48:11.628Z,97899.08
2018-06-29T01:50:40.915Z,97908.22
2018-06-29T01:53:10.181Z,97908.72
2018-06-29T01:55:39.481Z,97910.88
2018-06-29T01:58:08.912Z,97903.92
2018-06-29T02:00:37.942Z,97908.03
2018-06-29T02:03:07.283Z,97902.12
2018-06-29T02:05:36.569Z,97904.84
2018-06-29T02:08:05.913Z,97905.11
2018-06-29T02:10:35.332Z,97896.22
2018-06-29T02:13:04.578Z,97905.11
2018-06-29T02:15:33.801Z,97903.20
2018-06-29T02:18:03.073Z,97903.23
2018-06-29T02:20:32.336Z,97904.84
2018-06-29T02:23:01.601Z,97905.08
2018-06-29T02:25:30.918Z,97897.37
2018-06-29T02:28:00.166Z,97899.81
2018-06-29T02:30:30.993Z,97893.89
2018-06-29T02:33:00.155Z,97888.78
2018-06-29T02:35:29.400Z,97891.73
2018-06-29T02:37:58.748Z,97886.09
2018-06-29T02:40:28.051Z,97882.55
2018-06-29T02:42:57.348Z,97886.12
2018-06-29T02:45:26.632Z,97893.64
2018-06-29T02:47:56.804Z,97883.46
2018-06-29T02:50:26.131Z,97895.22
2018-06-29T02:52:55.214Z,97886.34
2018-06-29T02:55:24.539Z,97886.34
2018-06-29T02:57:53.858Z,97883.38
2018-06-29T03:00:23.056Z,97873.92
2018-06-29T03:02:55.875Z,97874.16
2018-06-29T03:05:25.071Z,97873.09
2018-06-29T03:07:54.360Z,97884.64
2018-06-29T03:10:23.624Z,97886.81
2018-06-29T03:12:52.967Z,97882.25
2018-06-29T03:15:22.222Z,97875.77
2018-06-29T03:17:51.755Z,97873.35
2018-06-29T03:20:21.034Z,97866.06
2018-06-29T03:22:50.348Z,97863.38
2018-06-29T03:25:19.707Z,97866.10
2018-06-29T03:27:48.991Z,97876.81
2018-06-29T03:30:18.611Z,97864.05
2018-06-29T03:32:47.953Z,97872.75
2018-06-29T03:35:17.203Z,97880.01
2018-06-29T03:37:46.419Z,97872.84
2018-06-29T03:40:15.725Z,97879.35
2018-06-29T03:42:44.939Z,97878.88
2018-06-29T03:45:14.269Z,97880.19
2018-06-29T03:47:43.600Z,97878.30
2018-06-29T03:50:12.970Z,97878.01
2018-06-29T03:52:42.240Z,97875.89
2018-06-29T03:55:11.495Z,97876.70
2018-06-29T03:57:41.577Z,97879.92
2018-06-29T04:00:10.979Z,97873.15
2018-06-29T04:02:40.270Z,97874.76
2018-06-29T04:05:09.511Z,97865.83
2018-06-29T04:07:38.847Z,97871.20
2018-06-29T04:10:08.142Z,97863.95
2018-06-29T04:12:37.449Z,97863.17
2018-06-29T04:15:07.071Z,97865.83
2018-06-29T04:17:36.386Z,97858.61
2018-06-29T04:20:06.258Z,97864.48
2018-06-29T04:22:35.490Z,97865.33
2018-06-29T04:25:05.952Z,97867.23
2018-06-29T04:27:35.218Z,97868.28
2018-06-29T04:30:04.711Z,97861.20
2018-06-29T04:32:33.968Z,97861.50
2018-06-29T04:35:03.200Z,97868.45
2018-06-29T04:37:32.398Z,97870.06
2018-06-29T04:40:01.599Z,97872.75
2018-06-29T04:42:30.796Z,97870.30
2018-06-29T04:45:00.006Z,97864.22
2018-06-29T04:47:29.268Z,97860.76
2018-06-29T04:49:58.442Z,97862.31
2018-06-29T04:52:27.695Z,97860.97
2018-06-29T04:54:56.906Z,97867.62
2018-06-29T04:57:26.070Z,97851.80
2018-06-29T04:59:55.305Z,97855.59
2018-06-29T05:02:24.516Z,97857.17
2018-06-29T05:04:53.765Z,97858.48
2018-06-29T05:07:23.013Z,97858.45
2018-06-29T05:09:52.268Z,97859.98
2018-06-29T05:12:21.673Z,97859.56
2018-06-29T05:14:51.943Z,97866.52
2018-06-29T05:17:21.160Z,97871.58
2018-06-29T05:19:50.510Z,97852.53
2018-06-29T05:22:19.793Z,97852.86
2018-06-29T05:24:49.163Z,97855.00
2018-06-29T05:27:18.394Z,97853.39
2018-06-29T05:29:47.638Z,97857.56
2018-06-29T05:32:16.867Z,97861.19
2018-06-29T05:34:46.116Z,97863.30
2018-06-29T05:37:15.440Z,97866.32
2018-06-29T05:39:44.722Z,97862.34
2018-06-29T05:42:14.038Z,97862.95
2018-06-29T05:44:43.359Z,97868.48
2018-06-29T05:47:12.694Z,97868.05
2018-06-29T05:49:42.020Z,97876.37
2018-06-29T05:52:11.296Z,97873.05
2018-06-29T05:54:40.592Z,97880.19
2018-06-29T05:57:09.884Z,97868.88
2018-06-29T05:59:39.160Z,97878.80
2018-06-29T06:02:08.765Z,97881.13
2018-06-29T06:04:37.828Z,97879.08
2018-06-29T06:07:07.199Z,97873.97
2018-06-29T06:09:36.494Z,97880.84
2018-06-29T06:12:05.894Z,97879.02
2018-06-29T06:14:35.276Z,97875.89
2018-06-29T06:17:04.342Z,97877.16
2018-06-29T06:19:50.499Z,97885.25
2018-06-29T06:22:19.824Z,97884.83
2018-06-29T06:24:49.126Z,97886.19
2018-06-29T06:27:18.400Z,97887.53
2018-06-29T06:29:47.729Z,97883.22
2018-06-29T06:32:17.113Z,97880.94
2018-06-29T06:34:46.551Z,97892.98
2018-06-29T06:37:15.905Z,97887.25
2018-06-29T06:39:45.214Z,97882.75
2018-06-29T06:42:14.523Z,97876.02
2018-06-29T06:44:43.827Z,97877.56
2018-06-29T06:47:13.129Z,97876.88
2018-06-29T06:49:42.400Z,97879.84
2018-06-29T06:52:11.689Z,97867.93
2018-06-29T06:54:40.954Z,97864.38
2018-06-29T06:57:10.269Z,97870.47
2018-06-29T06:59:39.546Z,97872.95
2018-06-29T07:02:08.884Z,97875.58
2018-06-29T07:04:38.479Z,97873.92
2018-06-29T07:07:07.988Z,97880.97
2018-06-29T07:09:37.370Z,97879.34
2018-06-29T07:12:06.471Z,97885.66
2018-06-29T07:14:35.777Z,97881.73
2018-06-29T07:17:05.265Z,97869.40
2018-06-29T07:19:34.503Z,97873.45
2018-06-29T07:22:03.828Z,97871.64
2018-06-29T07:24:33.141Z,97871.30
2018-06-29T07:27:02.350Z,97869.75
2018-06-29T07:29:31.549Z,97875.14
2018-06-29T07:32:01.011Z,97879.64
2018-06-29T07:34:30.268Z,97872.38
2018-06-29T07:36:59.590Z,97880.39
2018-06-29T07:39:28.803Z,97877.94
2018-06-29T07:41:58.063Z,97869.13
2018-06-29T07:44:27.393Z,97866.28
2018-06-29T07:46:56.709Z,97867.30
2018-06-29T07:49:25.967Z,97866.05
2018-06-29T07:51:55.404Z,97870.45
2018-06-29T07:54:24.748Z,97868.08
2018-06-29T07:56:54.099Z,97881.61
2018-06-29T07:59:23.359Z,97877.23
2018-06-29T08:01:52.663Z,97882.02
2018-06-29T08:04:21.961Z,97885.49
2018-06-29T08:06:51.323Z,97879.84
2018-06-29T08:09:20.383Z,97885.02
2018-06-29T08:11:49.811Z,97884.49
2018-06-29T08:14:19.098Z,97879.61
2018-06-29T08:16:48.415Z,97887.05
2018-06-29T08:19:18.353Z,97886.33
2018-06-29T08:21:47.673Z,97885.20
2018-06-29T08:24:17.030Z,97879.69
2018-06-29T08:26:46.368Z,97883.64
2018-06-29T08:29:15.680Z,97883.39
2018-06-29T08:31:44.898Z,97881.61
2018-06-29T08:34:14.229Z,97881.66
2018-06-29T08:36:43.572Z,97882.86
2018-06-29T08:39:12.945Z,97881.78
2018-06-29T08:41:43.223Z,97888.09
2018-06-29T08:44:12.595Z,97889.73
2018-06-29T08:46:41.992Z,97887.31
2018-06-29T08:49:11.316Z,97886.20
2018-06-29T08:51:40.700Z,97889.20
2018-06-29T08:54:09.978Z,97894.39
2018-06-29T08:56:39.316Z,97889.08
2018-06-29T08:59:08.707Z,97889.22
2018-06-29T09:01:37.968Z,97881.00
2018-06-29T09:04:07.244Z,97870.70
2018-06-29T09:06:36.506Z,97876.90
2018-06-29T09:09:08.909Z,97874.41
2018-06-29T09:11:38.357Z,97877.98
2018-06-29T09:14:07.862Z,97874.09
2018-06-29T09:16:36.974Z,97881.20
2018-06-29T09:19:06.490Z,97876.02
2018-06-29T09:21:35.854Z,97876.70
2018-06-29T09:24:05.396Z,97883.26
2018-06-29T09:26:34.694Z,97880.77
2018-06-29T09:29:04.098Z,97882.05
2018-06-29T09:31:33.419Z,97875.22
2018-06-29T09:34:02.770Z,97878.00
2018-06-29T09:36:32.141Z,97874.86
2018-06-29T09:39:01.498Z,97872.08
2018-06-29T09:41:30.831Z,97871.52
2018-06-29T09:43:59.865Z,97869.28
2018-06-29T09:46:29.263Z,97865.02
2018-06-29T09:48:58.557Z,97855.16
2018-06-29T09:51:27.869Z,97860.87
2018-06-29T09:53:57.317Z,97849.52
2018-06-29T09:56:26.568Z,97847.80
2018-06-29T09:58:56.026Z,97846.07
2018-06-29T10:01:25.647Z,97845.02
2018-06-29T10:03:54.922Z,97842.55
2018-06-29T10:06:24.447Z,97845.41
2018-06-29T10:08:53.787Z,97848.14
2018-06-29T10:11:23.309Z,97843.68
2018-06-29T10:13:52.446Z,97851.50
2018-06-29T10:16:22.138Z,97841.76
2018-06-29T10:18:51.571Z,97844.41
2018-06-29T10:21:21.257Z,97848.81
2018-06-29T10:23:50.630Z,97841.62
2018-06-29T10:26:20.141Z,97835.02
2018-06-29T10:28:49.591Z,97838.02
2018-06-29T10:31:18.897Z,97840.91
2018-06-29T10:33:48.809Z,97839.13
2018-06-29T10:36:18.221Z,97832.28
2018-06-29T10:38:47.641Z,97829.73
2018-06-29T10:41:16.919Z,97832.17
2018-06-29T10:43:46.216Z,97820.45
2018-06-29T10:46:15.520Z,97822.58
2018-06-29T10:48:44.835Z,97826.82
2018-06-29T10:51:14.250Z,97822.30
2018-06-29T10:53:43.581Z,97822.67
2018-06-29T10:56:12.942Z,97825.91
2018-06-29T10:58:42.380Z,97820.76
2018-06-29T11:01:11.616Z,97820.56
2018-06-29T11:03:40.971Z,97820.57
2018-06-29T11:06:10.275Z,97812.19
2018-06-29T11:08:39.587Z,97811.84
2018-06-29T11:11:08.934Z,97806.95
2018-06-29T11:13:38.276Z,97802.27
2018-06-29T11:16:07.751Z,97795.97
2018-06-29T11:18:36.998Z,97796.34
2018-06-29T11:21:06.235Z,97793.58
2018-06-29T11:23:35.467Z,97788.69
2018-06-29T11:26:04.757Z,97791.39
2018-06-29T11:28:34.081Z,97794.26
2018-06-29T11:31:03.394Z,97792.88
2018-06-29T11:33:32.630Z,97793.80
2018-06-29T11:36:01.907Z,97795.28
2018-06-29T11:38:31.107Z,97796.53
2018-06-29T11:41:00.343Z,97795.05
2018-06-29T11:43:29.329Z,97791.59
2018-06-29T11:45:58.595Z,97787.97
2018-06-29T11:48:27.892Z,97788.09
2018-06-29T11:50:57.122Z,97780.45
2018-06-29T11:53:26.383Z,97778.37
2018-06-29T11:55:55.679Z,97787.34
2018-06-29T11:58:25.096Z,97784.02
2018-06-29T12:00:54.460Z,97781.19
2018-06-29T12:03:23.944Z,97781.17
2018-06-29T12:05:53.420Z,97770.34
2018-06-29T12:08:22.774Z,97781.88
2018-06-29T12:10:52.187Z,97769.21
2018-06-29T12:13:21.539Z,97770.63
2018-06-29T12:15:50.965Z,97769.95
2018-06-29T12:18:20.394Z,97770.11
2018-06-29T12:20:49.718Z,97769.98
2018-06-29T12:23:19.001Z,97765.42
2018-06-29T12:25:48.174Z,97765.58
2018-06-29T12:28:17.420Z,97763.82
2018-06-29T12:30:46.659Z,97757.25
2018-06-29T12:33:16.026Z,97759.54
2018-06-29T12:35:45.246Z,97761.68
2018-06-29T12:38:14.566Z,97760.47
2018-06-29T12:40:43.946Z,97755.27
2018-06-29T12:43:13.626Z,97756.32
2018-06-29T12:45:42.748Z,97749.30
2018-06-29T12:48:11.994Z,97752.70
2018-06-29T12:50:41.214Z,97743.19
2018-06-29T12:53:10.478Z,97753.98
2018-06-29T12:55:39.934Z,97748.16
2018-06-29T12:58:09.211Z,97741.58
2018-06-29T13:00:38.450Z,97739.72
2018-06-29T13:03:07.847Z,97734.58
2018-06-29T13:05:37.151Z,97734.89
2018-06-29T13:08:06.440Z,97735.73
2018-06-29T13:10:36.933Z,97741.70
2018-06-29T13:13:06.212Z,97738.59
2018-06-29T13:15:35.407Z,97734.53
2018-06-29T13:18:05.180Z,97737.86
2018-06-29T13:20:34.395Z,97738.37
2018-06-29T13:23:03.686Z,97741.70
2018-06-29T13:25:33.175Z,97738.01
2018-06-29T13:28:02.474Z,97733.50
2018-06-29T13:30:31.792Z,97725.91
2018-06-29T13:33:01.917Z,97727.69
2018-06-29T13:35:31.298Z,97726.06
2018-06-29T13:38:00.618Z,97724.72
2018-06-29T13:40:29.628Z,97717.09
2018-06-29T13:42:59.011Z,97716.11
2018-06-29T13:45:28.567Z,97706.16
2018-06-29T13:47:57.977Z,97703.20
2018-06-29T13:50:27.390Z,97710.67
2018-06-29T13:52:56.801Z,97706.13
2018-06-29T13:55:26.023Z,97699.59
2018-06-29T13:57:55.514Z,97696.14
2018-06-29T14:00:25.178Z,97695.20
2018-06-29T14:02:54.507Z,97690.70
2018-06-29T14:05:23.843Z,97682.21
2018-06-29T14:07:52.921Z,97691.98
2018-06-29T14:10:22.207Z,97678.93
2018-06-29T14:12:51.471Z,97691.72
2018-06-29T14:15:21.147Z,97687.70
2018-06-29T14:17:50.389Z,97684.59
2018-06-29T14:20:19.666Z,97678.92
2018-06-29T14:22:49.181Z,97673.11
2018-06-29T14:25:18.493Z,97667.73
2018-06-29T14:27:47.703Z,97662.94
2018-06-29T14:30:16.914Z,97667.45
2018-06-29T14:32:46.141Z,97666.77
2018-06-29T14:35:15.411Z,97661.02
2018-06-29T14:37:44.642Z,97657.89
2018-06-29T14:40:13.961Z,97654.69
2018-06-29T14:42:43.231Z,97652.59
2018-06-29T14:45:12.487Z,97657.27
2018-06-29T14:47:41.779Z,97666.42
2018-06-29T14:50:11.091Z,97645.34
2018-06-29T14:52:40.279Z,97651.15
2018-06-29T14:55:09.511Z,97645.25
2018-06-29T14:57:38.726Z,97648.20
2018-06-29T15:00:10.197Z,97648.65
2018-06-29T15:02:39.851Z,97643.63
2018-06-29T15:05:09.480Z,97639.88
2018-06-29T15:07:38.822Z,97633.94
2018-06-29T15:10:08.445Z,97635.25
2018-06-29T15:12:37.674Z,97631.01
2018-06-29T15:15:06.907Z,97629.02
2018-06-29T15:17:36.231Z,97634.13
2018-06-29T15:20:06.787Z,97633.14
2018-06-29T15:22:36.155Z,97628.19
2018-06-29T15:25:05.546Z,97627.80
2018-06-29T15:27:35.250Z,97624.71
2018-06-29T15:30:05.257Z,97630.04
2018-06-29T15:32:34.678Z,97632.74
2018-06-29T15:35:03.994Z,97627.84
2018-06-29T15:37:33.247Z,97626.88
2018-06-29T15:40:02.459Z,97628.73
2018-06-29T15:42:31.655Z,97626.20
2018-06-29T15:45:00.847Z,97623.49
2018-06-29T15:47:29.795Z,97623.51
2018-06-29T15:49:58.998Z,97617.44
2018-06-29T15:52:28.225Z,97626.57
2018-06-29T15:54:57.413Z,97616.66
2018-06-29T15:57:26.608Z,97622.75
2018-06-29T15:59:55.831Z,97618.55
2018-06-29T16:02:25.105Z,97617.74
2018-06-29T16:04:54.459Z,97614.80
2018-06-29T16:07:23.700Z,97610.42
2018-06-29T16:09:53.002Z,97614.02
2018-06-29T16:12:22.339Z,97618.88
2018-06-29T16:14:51.627Z,97610.94
2018-06-29T16:17:20.898Z,97609.30
2018-06-29T16:19:50.174Z,97606.50
2018-06-29T16:22:19.158Z,97601.03
2018-06-29T16:24:48.367Z,97607.66
2018-06-29T16:27:17.622Z,97609.91
2018-06-29T16:29:46.859Z,97608.70
2018-06-29T16:32:16.076Z,97602.85
2018-06-29T16:34:45.263Z,97603.84
2018-06-29T16:37:14.491Z,97600.02
2018-06-29T16:39:43.715Z,97605.69
2018-06-29T16:42:12.955Z,97603.61
2018-06-29T16:44:42.242Z,97598.78
2018-06-29T16:47:11.404Z,97607.06
2018-06-29T16:49:40.583Z,97600.23
2018-06-29T16:52:09.848Z,97599.86
2018-06-29T16:54:39.062Z,97599.55
2018-06-29T16:57:08.327Z,97598.07
2018-06-29T16:59:37.556Z,97599.69
2018-06-29T17:02:07.058Z,97598.05
2018-06-29T17:04:36.253Z,97591.11
2018-06-29T17:07:05.530Z,97592.27
2018-06-29T17:09:34.861Z,97596.78
2018-06-29T17:12:04.173Z,97589.21
2018-06-29T17:14:33.380Z,97590.70
2018-06-29T17:17:02.681Z,97590.38
2018-06-29T17:19:31.636Z,97583.95
2018-06-29T17:22:01.041Z,97592.48
2018-06-29T17:24:30.011Z,97589.94
2018-06-29T17:26:59.307Z,97596.41
2018-06-29T17:29:28.267Z,97590.23
2018-06-29T17:31:57.615Z,97588.38
2018-06-29T17:34:26.904Z,97593.27
2018-06-29T17:36:56.236Z,97586.77
2018-06-29T17:39:25.550Z,97585.97
2018-06-29T17:41:54.595Z,97590.16
2018-06-29T17:44:23.867Z,97584.80
2018-06-29T17:46:53.092Z,97592.52
2018-06-29T17:49:22.387Z,97589.65
2018-06-29T17:51:51.646Z,97589.12
2018-06-29T17:54:20.861Z,97587.75
2018-06-29T17:56:51.183Z,97586.42
2018-06-29T17:59:20.355Z,97585.91
2018-06-29T18:01:49.697Z,97595.20
2018-06-29T18:04:19.608Z,97591.92
2018-06-29T18:06:49.155Z,97590.79
2018-06-29T18:09:18.462Z,97587.97
2018-06-29T18:11:47.783Z,97593.09
2018-06-29T18:14:17.048Z,97589.48
2018-06-29T18:16:46.306Z,97588.78
2018-06-29T18:19:15.625Z,97595.83
2018-06-29T18:21:44.646Z,97597.23
2018-06-29T18:24:13.915Z,97594.19
2018-06-29T18:26:43.227Z,97592.70
2018-06-29T18:29:12.508Z,97588.77
2018-06-29T18:31:42.102Z,97593.52
2018-06-29T18:34:11.309Z,97594.92
2018-06-29T18:36:40.573Z,97594.29
2018-06-29T18:39:11.058Z,97591.64
2018-06-29T18:41:40.051Z,97587.98
2018-06-29T18:44:09.289Z,97591.83
2018-06-29T18:46:38.612Z,97591.05
2018-06-29T18:49:08.129Z,97586.67
2018-06-29T18:51:38.008Z,97589.63
2018-06-29T18:54:07.565Z,97591.46
2018-06-29T18:56:36.834Z,97597.17
2018-06-29T18:59:06.066Z,97595.70
2018-06-29T19:08:34.552Z,97602.40
2018-06-29T19:11:03.877Z,97600.81
2018-06-29T19:13:33.074Z,97598.88
2018-06-29T19:16:02.354Z,97600.45
2018-06-29T19:18:32.109Z,97604.02
2018-06-29T19:21:01.265Z,97601.27
2018-06-29T19:23:30.495Z,97605.03
2018-06-29T19:25:59.708Z,97603.73
2018-06-29T19:28:28.947Z,97600.26
2018-06-29T19:30:58.299Z,97609.03
2018-06-29T19:33:27.533Z,97605.45
2018-06-29T19:35:56.932Z,97610.48
2018-06-29T19:38:26.142Z,97615.60
2018-06-29T19:40:55.486Z,97616.08
2018-06-29T19:43:24.877Z,97615.39
2018-06-29T19:45:54.139Z,97617.66
2018-06-29T19:48:23.456Z,97618.47
2018-06-29T19:50:52.898Z,97617.41
2018-06-29T19:53:22.187Z,97621.58
2018-06-29T19:55:51.196Z,97621.24
2018-06-29T19:58:20.547Z,97617.20
2018-06-29T20:00:49.616Z,97621.09
2018-06-29T20:03:18.855Z,97626.03
2018-06-29T20:05:48.141Z,97622.67
2018-06-29T20:08:17.024Z,97631.94
2018-06-29T20:10:46.286Z,97624.13
2018-06-29T20:13:15.305Z,97630.66
2018-06-29T20:15:44.560Z,97627.98
2018-06-29T20:18:13.891Z,97635.30
2018-06-29T20:20:43.384Z,97627.33
2018-06-29T20:23:12.610Z,97630.83
2018-06-29T20:25:41.976Z,97626.45
2018-06-29T20:28:11.226Z,97629.96
2018-06-29T20:30:40.563Z,97634.38
2018-06-29T20:33:09.725Z,97634.44
2018-06-29T20:35:39.004Z,97635.94
2018-06-29T20:38:08.379Z,97636.17
2018-06-29T20:40:37.741Z,97637.27
2018-06-29T20:43:08.518Z,97644.92
2018-06-29T20:45:37.815Z,97644.02
2018-06-29T20:48:08.449Z,97641.45
2018-06-29T20:50:38.428Z,97645.56
2018-06-29T20:53:08.856Z,97637.38
2018-06-29T20:55:38.236Z,97644.27
2018-06-29T20:58:07.570Z,97643.94
2018-06-29T21:00:36.919Z,97646.30
2018-06-29T21:03:06.291Z,97650.73
2018-06-29T21:05:35.671Z,97643.01
2018-06-29T21:08:05.743Z,97641.88
2018-06-29T21:10:35.024Z,97641.21
2018-06-29T21:13:04.205Z,97638.34
2018-06-29T21:15:33.517Z,97636.98
2018-06-29T21:18:02.865Z,97637.44
2018-06-29T21:20:32.163Z,97636.16
2018-06-29T21:23:01.548Z,97635.53
2018-06-29T21:25:30.831Z,97634.16
2018-06-29T21:28:00.109Z,97637.36
2018-06-29T21:30:29.369Z,97637.11
2018-06-29T21:32:58.613Z,97637.00
2018-06-29T21:35:27.922Z,97630.19
2018-06-29T21:37:57.256Z,97633.98
2018-06-29T21:40:26.530Z,97635.59
2018-06-29T21:42:55.838Z,97636.08
2018-06-29T21:45:25.106Z,97633.78
2018-06-29T21:47:54.470Z,97631.41
2018-06-29T21:50:23.808Z,97635.86
2018-06-29T21:52:53.208Z,97630.51
2018-06-29T21:55:22.692Z,97629.59
2018-06-29T21:57:52.049Z,97628.97
2018-06-29T22:00:21.383Z,97649.20
2018-06-29T22:02:50.722Z,97627.77
2018-06-29T22:05:20.039Z,97627.66
2018-06-29T22:07:49.380Z,97632.18
2018-06-29T22:10:18.702Z,97625.44
2018-06-29T22:12:47.976Z,97622.00
2018-06-29T22:15:22.698Z,97620.39
2018-06-29T22:17:52.294Z,97621.36
2018-06-29T22:20:22.154Z,97617.41
2018-06-29T22:22:51.543Z,97622.36
2018-06-29T22:25:21.736Z,97612.28
2018-06-29T22:27:51.194Z,97614.98
2018-06-29T22:30:21.142Z,97618.58
2018-06-29T22:32:50.203Z,97613.06
2018-06-29T22:35:19.516Z,97611.17
2018-06-29T22:37:48.797Z,97611.75
2018-06-29T22:40:18.187Z,97612.90
2018-06-29T22:42:47.519Z,97616.20
2018-06-29T22:45:16.735Z,97616.81
2018-06-29T22:47:45.953Z,97613.28
2018-06-29T22:50:15.183Z,97617.88
2018-06-29T22:52:44.383Z,97610.27
2018-06-29T22:55:13.628Z,97609.79
2018-06-29T22:57:42.888Z,97613.38
2018-06-29T23:00:12.192Z,97605.84
2018-06-29T23:02:41.371Z,97603.02
2018-06-29T23:05:10.572Z,97603.30
2018-06-29T23:07:39.773Z,97603.94
2018-06-29T23:10:09.029Z,97610.56
2018-06-29T23:12:38.073Z,97603.89
2018-06-29T23:15:07.371Z,97604.78
2018-06-29T23:17:36.618Z,97605.88
2018-06-29T23:20:05.990Z,97609.91
2018-06-29T23:22:35.250Z,97600.37
2018-06-29T23:25:04.526Z,97607.71
2018-06-29T23:27:33.744Z,97604.19
2018-06-29T23:30:03.014Z,97606.11
2018-06-29T23:32:32.275Z,97600.58
2018-06-29T23:35:01.573Z,97600.17
2018-06-29T23:37:30.763Z,97604.78
2018-06-29T23:40:00.034Z,97601.27
2018-06-29T23:42:29.283Z,97602.09
2018-06-29T23:44:58.503Z,97593.89
2018-06-29T23:47:27.700Z,97593.81
2018-06-29T23:49:56.950Z,97586.05
2018-06-29T23:52:26.272Z,97586.88
2018-06-29T23:54:55.521Z,97584.27
2018-06-29T23:57:24.746Z,97587.84
2018-06-29T23:59:54.001Z,97582.26
